Terminal Aerodrome Forecast
Issued by NWS

Home | Current Version | Previous Version | Graphics & Text | Print | Product List | Glossary On
Versions: 1 2 3 4 5 6 7 8 9 10 11 12 13 14 15 16 17 18 19 20 21 22
874
FTUS43 KUNR 271817 AAA
TAFGCC
TAF AMD
KGCC 271817Z 2718/2818 34010KT P6SM SCT008 SCT015 OVC035
      TEMPO 2718/2722 3SM -SN BR SCT008 OVC015
     FM280200 01005KT P6SM OVC006=

USA.gov is the U.S. government's official web portal to all federal, state and local government web resources and services.